sensor_id;sensor_type;location;lat;lon;timestamp;temperature;humidity
17701;DHT22;8969;48.576;12.580;2022-11-20T00:01:29;4.70;99.90
17701;DHT22;8969;48.576;12.580;2022-11-20T00:03:59;4.80;99.90
17701;DHT22;8969;48.576;12.580;2022-11-20T00:06:27;4.80;99.90
17701;DHT22;8969;48.576;12.580;2022-11-20T00:08:58;4.80;99.90
17701;DHT22;8969;48.576;12.580;2022-11-20T00:11:28;4.80;99.90
17701;DHT22;8969;48.576;12.580;2022-11-20T00:13:58;4.80;99.90
17701;DHT22;8969;48.576;12.580;2022-11-20T00:16:28;4.80;99.90
17701;DHT22;8969;48.576;12.580;2022-11-20T00:18:56;4.80;99.90
17701;DHT22;8969;48.576;12.580;2022-11-20T00:21:27;4.80;99.90
17701;DHT22;8969;48.576;12.580;2022-11-20T00:23:57;4.80;99.90
17701;DHT22;8969;48.576;12.580;2022-11-20T00:26:26;4.80;99.90
17701;DHT22;8969;48.576;12.580;2022-11-20T00:28:57;4.80;99.90
17701;DHT22;8969;48.576;12.580;2022-11-20T00:31:25;4.80;99.90
17701;DHT22;8969;48.576;12.580;2022-11-20T00:33:54;4.80;99.90
17701;DHT22;8969;48.576;12.580;2022-11-20T00:36:23;4.80;99.90
17701;DHT22;8969;48.576;12.580;2022-11-20T00:38:54;4.80;99.90
17701;DHT22;8969;48.576;12.580;2022-11-20T00:41:23;4.80;99.90
17701;DHT22;8969;48.576;12.580;2022-11-20T00:43:53;4.80;99.90
17701;DHT22;8969;48.576;12.580;2022-11-20T00:46:24;4.80;99.90
17701;DHT22;8969;48.576;12.580;2022-11-20T00:48:53;4.80;99.90
17701;DHT22;8969;48.576;12.580;2022-11-20T00:51:23;4.80;99.90
17701;DHT22;8969;48.576;12.580;2022-11-20T00:53:55;4.80;99.90
17701;DHT22;8969;48.576;12.580;2022-11-20T00:56:25;4.80;99.90
17701;DHT22;8969;48.576;12.580;2022-11-20T00:58:53;4.70;99.90
17701;DHT22;8969;48.576;12.580;2022-11-20T01:01:23;4.70;99.90
17701;DHT22;8969;48.576;12.580;2022-11-20T01:03:53;4.70;99.90
17701;DHT22;8969;48.576;12.580;2022-11-20T01:06:23;4.70;99.90
17701;DHT22;8969;48.576;12.580;2022-11-20T01:08:55;4.60;99.90
17701;DHT22;8969;48.576;12.580;2022-11-20T01:11:25;4.70;99.90
17701;DHT22;8969;48.576;12.580;2022-11-20T01:13:54;4.70;99.90
17701;DHT22;8969;48.576;12.580;2022-11-20T01:16:25;4.70;99.90
17701;DHT22;8969;48.576;12.580;2022-11-20T01:18:56;4.70;99.90
17701;DHT22;8969;48.576;12.580;2022-11-20T01:21:26;4.80;99.90
17701;DHT22;8969;48.576;12.580;2022-11-20T01:23:56;4.70;99.90
17701;DHT22;8969;48.576;12.580;2022-11-20T01:26:26;4.70;99.90
17701;DHT22;8969;48.576;12.580;2022-11-20T01:28:56;4.70;99.90
17701;DHT22;8969;48.576;12.580;2022-11-20T01:31:26;4.70;99.90
17701;DHT22;8969;48.576;12.580;2022-11-20T01:33:56;4.70;99.90
17701;DHT22;8969;48.576;12.580;2022-11-20T01:36:27;4.60;99.90
17701;DHT22;8969;48.576;12.580;2022-11-20T01:38:58;4.60;99.90
17701;DHT22;8969;48.576;12.580;2022-11-20T01:41:27;4.50;99.90
17701;DHT22;8969;48.576;12.580;2022-11-20T01:44:16;4.50;99.90
17701;DHT22;8969;48.576;12.580;2022-11-20T01:46:52;4.50;99.90
17701;DHT22;8969;48.576;12.580;2022-11-20T01:49:24;4.40;99.90
17701;DHT22;8969;48.576;12.580;2022-11-20T01:51:57;4.40;99.90
17701;DHT22;8969;48.576;12.580;2022-11-20T01:54:33;4.40;99.90
17701;DHT22;8969;48.576;12.580;2022-11-20T01:57:05;4.40;99.90
17701;DHT22;8969;48.576;12.580;2022-11-20T01:59:39;4.30;99.90
17701;DHT22;8969;48.576;12.580;2022-11-20T02:02:09;4.40;99.90
17701;DHT22;8969;48.576;12.580;2022-11-20T02:04:37;4.40;99.90
17701;DHT22;8969;48.576;12.580;2022-11-20T02:07:05;4.40;99.90
17701;DHT22;8969;48.576;12.580;2022-11-20T02:09:35;4.40;99.90
17701;DHT22;8969;48.576;12.580;2022-11-20T02:12:03;4.30;99.90
17701;DHT22;8969;48.576;12.580;2022-11-20T02:14:32;4.40;99.90
17701;DHT22;8969;48.576;12.580;2022-11-20T02:16:59;4.30;99.90
17701;DHT22;8969;48.576;12.580;2022-11-20T02:19:28;4.30;99.90
17701;DHT22;8969;48.576;12.580;2022-11-20T02:22:04;4.40;99.90
17701;DHT22;8969;48.576;12.580;2022-11-20T02:24:35;4.30;99.90
17701;DHT22;8969;48.576;12.580;2022-11-20T02:27:07;4.30;99.90
17701;DHT22;8969;48.576;12.580;2022-11-20T02:29:39;4.30;99.90
17701;DHT22;8969;48.576;12.580;2022-11-20T02:32:18;4.30;99.90
17701;DHT22;8969;48.576;12.580;2022-11-20T02:34:47;4.40;99.90
17701;DHT22;8969;48.576;12.580;2022-11-20T02:37:16;4.40;99.90
17701;DHT22;8969;48.576;12.580;2022-11-20T02:39:48;4.30;99.90
17701;DHT22;8969;48.576;12.580;2022-11-20T02:42:17;4.40;99.90
17701;DHT22;8969;48.576;12.580;2022-11-20T02:44:45;4.30;99.90
17701;DHT22;8969;48.576;12.580;2022-11-20T02:47:13;4.30;99.90
17701;DHT22;8969;48.576;12.580;2022-11-20T02:49:41;4.30;99.90
17701;DHT22;8969;48.576;12.580;2022-11-20T02:52:09;4.30;99.90
17701;DHT22;8969;48.576;12.580;2022-11-20T02:54:38;4.30;99.90
17701;DHT22;8969;48.576;12.580;2022-11-20T02:57:07;4.30;99.90
17701;DHT22;8969;48.576;12.580;2022-11-20T02:59:36;4.40;99.90
17701;DHT22;8969;48.576;12.580;2022-11-20T03:02:04;4.40;99.90
17701;DHT22;8969;48.576;12.580;2022-11-20T03:04:32;4.40;99.90
17701;DHT22;8969;48.576;12.580;2022-11-20T03:07:02;4.40;99.90
17701;DHT22;8969;48.576;12.580;2022-11-20T03:09:30;4.40;99.90
17701;DHT22;8969;48.576;12.580;2022-11-20T03:11:59;4.50;99.90
17701;DHT22;8969;48.576;12.580;2022-11-20T03:14:28;4.50;99.90
17701;DHT22;8969;48.576;12.580;2022-11-20T03:16:56;4.50;99.90
17701;DHT22;8969;48.576;12.580;2022-11-20T03:19:25;4.50;99.90
17701;DHT22;8969;48.576;12.580;2022-11-20T03:21:53;4.50;99.90
17701;DHT22;8969;48.576;12.580;2022-11-20T03:24:21;4.50;99.90
17701;DHT22;8969;48.576;12.580;2022-11-20T03:26:50;4.50;99.90
17701;DHT22;8969;48.576;12.580;2022-11-20T03:29:18;4.50;99.90
17701;DHT22;8969;48.576;12.580;2022-11-20T03:31:48;4.60;99.90
17701;DHT22;8969;48.576;12.580;2022-11-20T03:34:17;4.60;99.90
17701;DHT22;8969;48.576;12.580;2022-11-20T03:36:45;4.60;99.90
17701;DHT22;8969;48.576;12.580;2022-11-20T03:39:13;4.60;99.90
17701;DHT22;8969;48.576;12.580;2022-11-20T03:41:41;4.60;99.90
17701;DHT22;8969;48.576;12.580;2022-11-20T03:44:35;4.60;99.90
17701;DHT22;8969;48.576;12.580;2022-11-20T03:47:05;4.60;99.90
17701;DHT22;8969;48.576;12.580;2022-11-20T03:49:33;4.60;99.90
17701;DHT22;8969;48.576;12.580;2022-11-20T03:52:01;4.60;99.90
17701;DHT22;8969;48.576;12.580;2022-11-20T03:54:30;4.60;99.90
17701;DHT22;8969;48.576;12.580;2022-11-20T03:56:58;4.60;99.90
17701;DHT22;8969;48.576;12.580;2022-11-20T03:59:27;4.60;99.90
17701;DHT22;8969;48.576;12.580;2022-11-20T04:01:55;4.60;99.90
17701;DHT22;8969;48.576;12.580;2022-11-20T04:04:25;4.70;99.90
17701;DHT22;8969;48.576;12.580;2022-11-20T04:06:53;4.60;99.90
17701;DHT22;8969;48.576;12.580;2022-11-20T04:09:21;4.70;99.90
17701;DHT22;8969;48.576;12.580;2022-11-20T04:11:50;4.70;99.90
17701;DHT22;8969;48.576;12.580;2022-11-20T04:14:18;4.70;99.90
17701;DHT22;8969;48.576;12.580;2022-11-20T04:16:46;4.70;99.90
17701;DHT22;8969;48.576;12.580;2022-11-20T04:19:15;4.70;99.90
17701;DHT22;8969;48.576;12.580;2022-11-20T04:21:45;4.80;99.90
17701;DHT22;8969;48.576;12.580;2022-11-20T04:24:13;4.80;99.90
17701;DHT22;8969;48.576;12.580;2022-11-20T04:26:41;4.80;99.90
17701;DHT22;8969;48.576;12.580;2022-11-20T04:29:11;4.80;99.90
17701;DHT22;8969;48.576;12.580;2022-11-20T04:31:39;4.80;99.90
17701;DHT22;8969;48.576;12.580;2022-11-20T04:34:10;4.80;99.90
17701;DHT22;8969;48.576;12.580;2022-11-20T04:36:39;4.90;99.90
17701;DHT22;8969;48.576;12.580;2022-11-20T04:39:13;4.90;99.90
17701;DHT22;8969;48.576;12.580;2022-11-20T04:41:42;4.90;99.90
17701;DHT22;8969;48.576;12.580;2022-11-20T04:44:10;4.90;99.90
17701;DHT22;8969;48.576;12.580;2022-11-20T04:46:41;5.00;99.90
17701;DHT22;8969;48.576;12.580;2022-11-20T04:49:10;5.00;99.90
17701;DHT22;8969;48.576;12.580;2022-11-20T04:51:39;5.00;99.90
17701;DHT22;8969;48.576;12.580;2022-11-20T04:54:12;5.00;99.90
17701;DHT22;8969;48.576;12.580;2022-11-20T04:56:40;5.00;99.90
17701;DHT22;8969;48.576;12.580;2022-11-20T04:59:10;5.00;99.90
17701;DHT22;8969;48.576;12.580;2022-11-20T05:01:38;5.00;99.90
17701;DHT22;8969;48.576;12.580;2022-11-20T05:04:07;5.00;99.90
17701;DHT22;8969;48.576;12.580;2022-11-20T05:06:36;5.00;99.90
17701;DHT22;8969;48.576;12.580;2022-11-20T05:09:04;5.00;99.90
17701;DHT22;8969;48.576;12.580;2022-11-20T05:11:34;5.00;99.90
17701;DHT22;8969;48.576;12.580;2022-11-20T05:14:02;5.00;99.90
17701;DHT22;8969;48.576;12.580;2022-11-20T05:16:30;5.00;99.90
17701;DHT22;8969;48.576;12.580;2022-11-20T05:18:58;5.00;99.90
17701;DHT22;8969;48.576;12.580;2022-11-20T05:21:33;5.00;99.90
17701;DHT22;8969;48.576;12.580;2022-11-20T05:24:01;5.00;99.90
17701;DHT22;8969;48.576;12.580;2022-11-20T05:26:29;5.00;99.90
17701;DHT22;8969;48.576;12.580;2022-11-20T05:28:59;5.10;99.90
17701;DHT22;8969;48.576;12.580;2022-11-20T05:31:28;5.10;99.90
17701;DHT22;8969;48.576;12.580;2022-11-20T05:33:57;5.10;99.90
17701;DHT22;8969;48.576;12.580;2022-11-20T05:36:25;5.10;99.90
17701;DHT22;8969;48.576;12.580;2022-11-20T05:39:15;5.10;99.90
17701;DHT22;8969;48.576;12.580;2022-11-20T05:41:43;5.10;99.90
17701;DHT22;8969;48.576;12.580;2022-11-20T05:44:13;5.20;99.90
17701;DHT22;8969;48.576;12.580;2022-11-20T05:46:41;5.20;99.90
17701;DHT22;8969;48.576;12.580;2022-11-20T05:49:10;5.20;99.90
17701;DHT22;8969;48.576;12.580;2022-11-20T05:51:38;5.20;99.90
17701;DHT22;8969;48.576;12.580;2022-11-20T05:54:06;5.20;99.90
17701;DHT22;8969;48.576;12.580;2022-11-20T05:56:35;5.20;99.90
17701;DHT22;8969;48.576;12.580;2022-11-20T05:59:03;5.20;99.90
17701;DHT22;8969;48.576;12.580;2022-11-20T06:01:32;5.20;99.90
17701;DHT22;8969;48.576;12.580;2022-11-20T06:04:03;5.20;99.90
17701;DHT22;8969;48.576;12.580;2022-11-20T06:06:31;5.30;99.90
17701;DHT22;8969;48.576;12.580;2022-11-20T06:09:00;5.20;99.90
17701;DHT22;8969;48.576;12.580;2022-11-20T06:11:28;5.30;99.90
17701;DHT22;8969;48.576;12.580;2022-11-20T06:13:56;5.30;99.90
17701;DHT22;8969;48.576;12.580;2022-11-20T06:16:24;5.30;99.90
17701;DHT22;8969;48.576;12.580;2022-11-20T06:18:54;5.30;99.90
17701;DHT22;8969;48.576;12.580;2022-11-20T06:21:22;5.30;99.90
17701;DHT22;8969;48.576;12.580;2022-11-20T06:23:52;5.30;99.90
17701;DHT22;8969;48.576;12.580;2022-11-20T06:26:22;5.30;99.90
17701;DHT22;8969;48.576;12.580;2022-11-20T06:28:52;5.40;99.90
17701;DHT22;8969;48.576;12.580;2022-11-20T06:31:22;5.40;99.90
17701;DHT22;8969;48.576;12.580;2022-11-20T06:33:50;5.30;99.90
17701;DHT22;8969;48.576;12.580;2022-11-20T06:36:21;5.30;99.90
17701;DHT22;8969;48.576;12.580;2022-11-20T06:38:49;5.30;99.90
17701;DHT22;8969;48.576;12.580;2022-11-20T06:41:20;5.30;99.90
17701;DHT22;8969;48.576;12.580;2022-11-20T06:43:48;5.30;99.90
17701;DHT22;8969;48.576;12.580;2022-11-20T06:46:18;5.40;99.90
17701;DHT22;8969;48.576;12.580;2022-11-20T06:48:47;5.30;99.90
17701;DHT22;8969;48.576;12.580;2022-11-20T06:51:16;5.30;99.90
17701;DHT22;8969;48.576;12.580;2022-11-20T06:53:46;5.30;99.90
17701;DHT22;8969;48.576;12.580;2022-11-20T06:56:14;5.30;99.90
17701;DHT22;8969;48.576;12.580;2022-11-20T06:58:42;5.30;99.90
17701;DHT22;8969;48.576;12.580;2022-11-20T07:01:12;5.30;99.90
17701;DHT22;8969;48.576;12.580;2022-11-20T07:03:41;5.30;99.90
17701;DHT22;8969;48.576;12.580;2022-11-20T07:06:10;5.40;99.90
17701;DHT22;8969;48.576;12.580;2022-11-20T07:08:38;5.40;99.90
17701;DHT22;8969;48.576;12.580;2022-11-20T07:11:11;5.40;99.90
17701;DHT22;8969;48.576;12.580;2022-11-20T07:13:39;5.40;99.90
17701;DHT22;8969;48.576;12.580;2022-11-20T07:16:08;5.40;99.90
17701;DHT22;8969;48.576;12.580;2022-11-20T07:18:37;5.40;99.90
17701;DHT22;8969;48.576;12.580;2022-11-20T07:21:07;5.40;99.90
17701;DHT22;8969;48.576;12.580;2022-11-20T07:23:35;5.40;99.90
17701;DHT22;8969;48.576;12.580;2022-11-20T07:26:05;5.40;99.90
17701;DHT22;8969;48.576;12.580;2022-11-20T07:28:35;5.50;99.90
17701;DHT22;8969;48.576;12.580;2022-11-20T07:31:03;5.40;99.90
17701;DHT22;8969;48.576;12.580;2022-11-20T07:33:33;5.40;99.90
17701;DHT22;8969;48.576;12.580;2022-11-20T07:36:01;5.50;99.90
17701;DHT22;8969;48.576;12.580;2022-11-20T07:38:30;5.50;99.90
17701;DHT22;8969;48.576;12.580;2022-11-20T07:40:58;5.50;99.90
17701;DHT22;8969;48.576;12.580;2022-11-20T07:43:28;5.50;99.90
17701;DHT22;8969;48.576;12.580;2022-11-20T07:45:58;5.60;99.90
17701;DHT22;8969;48.576;12.580;2022-11-20T07:48:26;5.60;99.90
17701;DHT22;8969;48.576;12.580;2022-11-20T07:50:55;5.60;99.90
17701;DHT22;8969;48.576;12.580;2022-11-20T07:53:23;5.70;99.90
17701;DHT22;8969;48.576;12.580;2022-11-20T07:55:51;5.70;99.90
17701;DHT22;8969;48.576;12.580;2022-11-20T07:58:20;5.70;99.90
17701;DHT22;8969;48.576;12.580;2022-11-20T08:00:49;5.80;99.90
17701;DHT22;8969;48.576;12.580;2022-11-20T08:03:18;5.80;99.90
17701;DHT22;8969;48.576;12.580;2022-11-20T08:05:51;5.80;99.90
17701;DHT22;8969;48.576;12.580;2022-11-20T08:08:19;5.80;99.90
17701;DHT22;8969;48.576;12.580;2022-11-20T08:10:48;5.80;99.90
17701;DHT22;8969;48.576;12.580;2022-11-20T08:13:16;5.90;99.90
17701;DHT22;8969;48.576;12.580;2022-11-20T08:16:02;5.90;99.90
17701;DHT22;8969;48.576;12.580;2022-11-20T08:18:31;6.00;99.90
17701;DHT22;8969;48.576;12.580;2022-11-20T08:21:02;6.10;99.90
17701;DHT22;8969;48.576;12.580;2022-11-20T08:23:31;6.20;99.90
17701;DHT22;8969;48.576;12.580;2022-11-20T08:25:59;6.20;99.90
17701;DHT22;8969;48.576;12.580;2022-11-20T08:28:27;6.30;99.90
17701;DHT22;8969;48.576;12.580;2022-11-20T08:30:58;6.30;99.90
17701;DHT22;8969;48.576;12.580;2022-11-20T08:33:26;6.30;99.90
17701;DHT22;8969;48.576;12.580;2022-11-20T08:35:59;6.20;99.90
17701;DHT22;8969;48.576;12.580;2022-11-20T08:38:28;6.20;99.90
17701;DHT22;8969;48.576;12.580;2022-11-20T08:40:57;6.20;99.90
17701;DHT22;8969;48.576;12.580;2022-11-20T08:43:43;6.20;99.90
17701;DHT22;8969;48.576;12.580;2022-11-20T08:46:12;6.30;99.90
17701;DHT22;8969;48.576;12.580;2022-11-20T08:48:43;6.30;99.90
17701;DHT22;8969;48.576;12.580;2022-11-20T08:51:13;6.30;99.90
17701;DHT22;8969;48.576;12.580;2022-11-20T08:53:42;6.30;99.90
17701;DHT22;8969;48.576;12.580;2022-11-20T08:56:11;6.30;99.90
17701;DHT22;8969;48.576;12.580;2022-11-20T08:58:39;6.40;99.90
17701;DHT22;8969;48.576;12.580;2022-11-20T09:01:28;6.40;99.90
17701;DHT22;8969;48.576;12.580;2022-11-20T09:03:56;6.50;99.90
17701;DHT22;8969;48.576;12.580;2022-11-20T09:06:27;6.60;99.90
17701;DHT22;8969;48.576;12.580;2022-11-20T09:08:56;6.60;99.90
17701;DHT22;8969;48.576;12.580;2022-11-20T09:11:30;6.70;99.90
17701;DHT22;8969;48.576;12.580;2022-11-20T09:13:59;6.70;99.90
17701;DHT22;8969;48.576;12.580;2022-11-20T09:16:29;6.70;99.90
17701;DHT22;8969;48.576;12.580;2022-11-20T09:18:57;6.70;99.90
17701;DHT22;8969;48.576;12.580;2022-11-20T09:21:46;6.70;99.90
17701;DHT22;8969;48.576;12.580;2022-11-20T09:24:15;6.70;99.90
17701;DHT22;8969;48.576;12.580;2022-11-20T09:26:43;6.80;99.90
17701;DHT22;8969;48.576;12.580;2022-11-20T09:29:11;6.80;99.90
17701;DHT22;8969;48.576;12.580;2022-11-20T09:31:40;6.80;99.90
17701;DHT22;8969;48.576;12.580;2022-11-20T09:34:08;6.70;99.90
17701;DHT22;8969;48.576;12.580;2022-11-20T09:36:37;6.80;99.90
17701;DHT22;8969;48.576;12.580;2022-11-20T09:39:06;6.70;99.90
17701;DHT22;8969;48.576;12.580;2022-11-20T09:41:55;6.80;99.90
17701;DHT22;8969;48.576;12.580;2022-11-20T09:44:38;6.80;99.90
17701;DHT22;8969;48.576;12.580;2022-11-20T09:47:11;6.80;99.90
17701;DHT22;8969;48.576;12.580;2022-11-20T09:49:56;6.70;99.90
17701;DHT22;8969;48.576;12.580;2022-11-20T09:52:37;6.70;99.90
17701;DHT22;8969;48.576;12.580;2022-11-20T09:55:12;6.80;99.90
17701;DHT22;8969;48.576;12.580;2022-11-20T09:57:42;6.80;99.90
17701;DHT22;8969;48.576;12.580;2022-11-20T10:00:14;6.80;99.90
17701;DHT22;8969;48.576;12.580;2022-11-20T10:02:46;6.70;99.90
17701;DHT22;8969;48.576;12.580;2022-11-20T10:05:18;6.70;99.90
17701;DHT22;8969;48.576;12.580;2022-11-20T10:07:52;6.70;99.90
17701;DHT22;8969;48.576;12.580;2022-11-20T10:10:31;6.70;99.90
17701;DHT22;8969;48.576;12.580;2022-11-20T10:13:26;6.70;99.90
17701;DHT22;8969;48.576;12.580;2022-11-20T10:16:08;6.80;99.90
17701;DHT22;8969;48.576;12.580;2022-11-20T10:18:50;6.80;99.90
17701;DHT22;8969;48.576;12.580;2022-11-20T10:21:27;6.80;99.90
17701;DHT22;8969;48.576;12.580;2022-11-20T10:24:30;6.90;99.90
17701;DHT22;8969;48.576;12.580;2022-11-20T10:27:09;7.00;99.90
17701;DHT22;8969;48.576;12.580;2022-11-20T10:29:43;7.10;99.90
17701;DHT22;8969;48.576;12.580;2022-11-20T10:32:17;7.10;99.90
17701;DHT22;8969;48.576;12.580;2022-11-20T10:34:50;7.10;99.90
17701;DHT22;8969;48.576;12.580;2022-11-20T10:37:23;7.10;99.90
17701;DHT22;8969;48.576;12.580;2022-11-20T10:39:58;7.20;99.90
17701;DHT22;8969;48.576;12.580;2022-11-20T10:42:34;7.20;99.90
17701;DHT22;8969;48.576;12.580;2022-11-20T10:45:15;7.20;99.90
17701;DHT22;8969;48.576;12.580;2022-11-20T10:47:48;7.20;99.90
17701;DHT22;8969;48.576;12.580;2022-11-20T10:50:20;7.30;99.90
17701;DHT22;8969;48.576;12.580;2022-11-20T10:52:56;7.40;99.90
17701;DHT22;8969;48.576;12.580;2022-11-20T10:55:33;7.40;99.90
17701;DHT22;8969;48.576;12.580;2022-11-20T10:58:13;7.30;99.90
17701;DHT22;8969;48.576;12.580;2022-11-20T11:00:41;7.40;99.90
17701;DHT22;8969;48.576;12.580;2022-11-20T11:03:20;7.40;99.90
17701;DHT22;8969;48.576;12.580;2022-11-20T11:05:54;7.50;99.90
17701;DHT22;8969;48.576;12.580;2022-11-20T11:08:28;7.60;99.90
17701;DHT22;8969;48.576;12.580;2022-11-20T11:11:02;7.70;99.90
17701;DHT22;8969;48.576;12.580;2022-11-20T11:13:37;7.70;99.90
17701;DHT22;8969;48.576;12.580;2022-11-20T11:16:05;7.70;99.90
17701;DHT22;8969;48.576;12.580;2022-11-20T11:18:34;7.70;99.90
17701;DHT22;8969;48.576;12.580;2022-11-20T11:21:04;7.80;99.90
17701;DHT22;8969;48.576;12.580;2022-11-20T11:23:35;7.90;99.90
17701;DHT22;8969;48.576;12.580;2022-11-20T11:26:05;7.90;99.90
17701;DHT22;8969;48.576;12.580;2022-11-20T11:28:34;7.90;99.90
17701;DHT22;8969;48.576;12.580;2022-11-20T11:31:04;7.90;99.90
17701;DHT22;8969;48.576;12.580;2022-11-20T11:33:33;7.90;99.90
17701;DHT22;8969;48.576;12.580;2022-11-20T11:36:03;8.00;99.90
17701;DHT22;8969;48.576;12.580;2022-11-20T11:38:35;8.00;99.90
17701;DHT22;8969;48.576;12.580;2022-11-20T11:41:07;7.90;99.90
17701;DHT22;8969;48.576;12.580;2022-11-20T11:43:37;7.90;99.90
17701;DHT22;8969;48.576;12.580;2022-11-20T11:46:31;7.90;99.90
17701;DHT22;8969;48.576;12.580;2022-11-20T11:49:01;8.00;99.90
17701;DHT22;8969;48.576;12.580;2022-11-20T11:51:34;7.90;99.90
17701;DHT22;8969;48.576;12.580;2022-11-20T11:54:13;8.00;99.90
17701;DHT22;8969;48.576;12.580;2022-11-20T11:56:44;8.00;99.90
17701;DHT22;8969;48.576;12.580;2022-11-20T11:59:18;8.00;99.90
17701;DHT22;8969;48.576;12.580;2022-11-20T12:01:56;8.10;99.90
17701;DHT22;8969;48.576;12.580;2022-11-20T12:04:40;8.10;99.90
17701;DHT22;8969;48.576;12.580;2022-11-20T12:07:13;8.10;99.90
17701;DHT22;8969;48.576;12.580;2022-11-20T12:10:04;8.10;99.90
17701;DHT22;8969;48.576;12.580;2022-11-20T12:12:37;8.10;99.90
17701;DHT22;8969;48.576;12.580;2022-11-20T12:15:11;8.10;99.90
17701;DHT22;8969;48.576;12.580;2022-11-20T12:17:41;8.10;99.90
17701;DHT22;8969;48.576;12.580;2022-11-20T12:20:14;8.10;99.90
17701;DHT22;8969;48.576;12.580;2022-11-20T12:22:48;8.00;99.90
17701;DHT22;8969;48.576;12.580;2022-11-20T12:25:22;8.00;99.90
17701;DHT22;8969;48.576;12.580;2022-11-20T12:28:19;8.00;99.90
17701;DHT22;8969;48.576;12.580;2022-11-20T12:31:03;7.90;99.90
17701;DHT22;8969;48.576;12.580;2022-11-20T12:33:49;7.90;99.90
17701;DHT22;8969;48.576;12.580;2022-11-20T12:36:30;7.70;99.90
17701;DHT22;8969;48.576;12.580;2022-11-20T12:42:00;7.80;99.90
17701;DHT22;8969;48.576;12.580;2022-11-20T12:45:09;7.80;99.90
17701;DHT22;8969;48.576;12.580;2022-11-20T12:47:56;7.90;99.90
17701;DHT22;8969;48.576;12.580;2022-11-20T12:50:36;7.90;99.90
17701;DHT22;8969;48.576;12.580;2022-11-20T12:53:33;7.90;99.90
17701;DHT22;8969;48.576;12.580;2022-11-20T12:56:12;7.90;99.90
17701;DHT22;8969;48.576;12.580;2022-11-20T12:58:52;7.90;99.90
17701;DHT22;8969;48.576;12.580;2022-11-20T13:01:26;7.80;99.90
17701;DHT22;8969;48.576;12.580;2022-11-20T13:04:16;7.80;99.90
17701;DHT22;8969;48.576;12.580;2022-11-20T13:06:48;7.70;99.90
17701;DHT22;8969;48.576;12.580;2022-11-20T13:09:19;7.60;99.90
17701;DHT22;8969;48.576;12.580;2022-11-20T13:11:55;7.60;99.90
17701;DHT22;8969;48.576;12.580;2022-11-20T13:14:33;7.50;99.90
17701;DHT22;8969;48.576;12.580;2022-11-20T13:17:05;7.50;99.90
17701;DHT22;8969;48.576;12.580;2022-11-20T13:19:36;7.40;99.90
17701;DHT22;8969;48.576;12.580;2022-11-20T13:22:07;7.40;99.90
17701;DHT22;8969;48.576;12.580;2022-11-20T13:24:36;7.40;99.90
17701;DHT22;8969;48.576;12.580;2022-11-20T13:27:21;7.30;99.90
17701;DHT22;8969;48.576;12.580;2022-11-20T13:30:03;7.30;99.90
17701;DHT22;8969;48.576;12.580;2022-11-20T13:32:48;7.30;99.90
17701;DHT22;8969;48.576;12.580;2022-11-20T13:35:28;7.30;99.90
17701;DHT22;8969;48.576;12.580;2022-11-20T13:38:04;7.30;99.90
17701;DHT22;8969;48.576;12.580;2022-11-20T13:40:38;7.30;99.90
17701;DHT22;8969;48.576;12.580;2022-11-20T13:43:20;7.20;99.90
17701;DHT22;8969;48.576;12.580;2022-11-20T13:45:57;7.20;99.90
17701;DHT22;8969;48.576;12.580;2022-11-20T13:48:30;7.20;99.90
17701;DHT22;8969;48.576;12.580;2022-11-20T13:51:18;7.20;99.90
17701;DHT22;8969;48.576;12.580;2022-11-20T13:54:22;7.10;99.90
17701;DHT22;8969;48.576;12.580;2022-11-20T13:57:05;7.10;99.90
17701;DHT22;8969;48.576;12.580;2022-11-20T13:59:47;7.10;99.90
17701;DHT22;8969;48.576;12.580;2022-11-20T14:02:19;7.10;99.90
17701;DHT22;8969;48.576;12.580;2022-11-20T14:04:49;7.10;99.90
17701;DHT22;8969;48.576;12.580;2022-11-20T14:07:20;7.10;99.90
17701;DHT22;8969;48.576;12.580;2022-11-20T14:09:52;7.20;99.90
17701;DHT22;8969;48.576;12.580;2022-11-20T14:12:23;7.20;99.90
17701;DHT22;8969;48.576;12.580;2022-11-20T14:14:52;7.20;99.90
17701;DHT22;8969;48.576;12.580;2022-11-20T14:17:23;7.20;99.90
17701;DHT22;8969;48.576;12.580;2022-11-20T14:19:53;7.20;99.90
17701;DHT22;8969;48.576;12.580;2022-11-20T14:22:23;7.20;99.90
17701;DHT22;8969;48.576;12.580;2022-11-20T14:25:04;7.20;99.90
17701;DHT22;8969;48.576;12.580;2022-11-20T14:27:35;7.10;99.90
17701;DHT22;8969;48.576;12.580;2022-11-20T14:30:11;7.10;99.90
17701;DHT22;8969;48.576;12.580;2022-11-20T14:32:41;7.10;99.90
17701;DHT22;8969;48.576;12.580;2022-11-20T14:35:15;7.10;99.90
17701;DHT22;8969;48.576;12.580;2022-11-20T14:37:46;7.10;99.90
17701;DHT22;8969;48.576;12.580;2022-11-20T14:40:25;7.10;99.90
17701;DHT22;8969;48.576;12.580;2022-11-20T14:42:54;7.00;99.90
17701;DHT22;8969;48.576;12.580;2022-11-20T14:45:23;7.00;99.90
17701;DHT22;8969;48.576;12.580;2022-11-20T14:47:56;7.00;99.90
17701;DHT22;8969;48.576;12.580;2022-11-20T14:50:27;7.00;99.90
17701;DHT22;8969;48.576;12.580;2022-11-20T14:52:57;7.00;99.90
17701;DHT22;8969;48.576;12.580;2022-11-20T14:55:29;7.00;99.90
17701;DHT22;8969;48.576;12.580;2022-11-20T14:58:00;7.00;99.90
17701;DHT22;8969;48.576;12.580;2022-11-20T15:00:30;6.90;99.90
17701;DHT22;8969;48.576;12.580;2022-11-20T15:02:59;6.90;99.90
17701;DHT22;8969;48.576;12.580;2022-11-20T15:05:48;7.00;99.90
17701;DHT22;8969;48.576;12.580;2022-11-20T15:08:18;6.90;99.90
17701;DHT22;8969;48.576;12.580;2022-11-20T15:10:49;6.90;99.90
17701;DHT22;8969;48.576;12.580;2022-11-20T15:13:24;6.90;99.90
17701;DHT22;8969;48.576;12.580;2022-11-20T15:15:55;6.90;99.90
17701;DHT22;8969;48.576;12.580;2022-11-20T15:18:27;6.90;99.90
17701;DHT22;8969;48.576;12.580;2022-11-20T15:21:01;6.90;99.90
17701;DHT22;8969;48.576;12.580;2022-11-20T15:23:30;6.90;99.90
17701;DHT22;8969;48.576;12.580;2022-11-20T15:25:59;6.90;99.90
17701;DHT22;8969;48.576;12.580;2022-11-20T15:28:30;6.90;99.90
17701;DHT22;8969;48.576;12.580;2022-11-20T15:30:59;6.80;99.90
17701;DHT22;8969;48.576;12.580;2022-11-20T15:33:29;6.80;99.90
17701;DHT22;8969;48.576;12.580;2022-11-20T15:35:57;6.80;99.90
17701;DHT22;8969;48.576;12.580;2022-11-20T15:38:26;6.80;99.90
17701;DHT22;8969;48.576;12.580;2022-11-20T15:40:54;6.80;99.90
17701;DHT22;8969;48.576;12.580;2022-11-20T15:43:23;6.80;99.90
17701;DHT22;8969;48.576;12.580;2022-11-20T15:45:55;6.80;99.90
17701;DHT22;8969;48.576;12.580;2022-11-20T15:48:27;6.80;99.90
17701;DHT22;8969;48.576;12.580;2022-11-20T15:50:58;6.80;99.90
17701;DHT22;8969;48.576;12.580;2022-11-20T15:53:27;6.80;99.90
17701;DHT22;8969;48.576;12.580;2022-11-20T15:55:56;6.80;99.90
17701;DHT22;8969;48.576;12.580;2022-11-20T15:58:25;6.80;99.90
17701;DHT22;8969;48.576;12.580;2022-11-20T16:00:54;6.80;99.90
17701;DHT22;8969;48.576;12.580;2022-11-20T16:03:22;6.80;99.90
17701;DHT22;8969;48.576;12.580;2022-11-20T16:05:50;6.80;99.90
17701;DHT22;8969;48.576;12.580;2022-11-20T16:08:18;6.70;99.90
17701;DHT22;8969;48.576;12.580;2022-11-20T16:10:46;6.70;99.90
17701;DHT22;8969;48.576;12.580;2022-11-20T16:13:16;6.70;99.90
17701;DHT22;8969;48.576;12.580;2022-11-20T16:16:06;6.70;99.90
17701;DHT22;8969;48.576;12.580;2022-11-20T16:18:35;6.70;99.90